New York, NY

02:45 AM EDT del 02 Settembre 2014 (GMT -0400)
La Guardia | Change Station
CLOSE
Current Station
Aeroporto
Location: New York,
Altitudine: 30 ft
Stazioni meteo nelle vicinanze

Alt. 30 ft 40.78 °N, 73.88 °W | Updated 54 minutes ago

Clear
Sereno
80 °F
Sembra 84 °F
N
7
Vento Variabile Vento da SSO

Oggi
Massima -- | Minima -- °F
--% Possibilità di precip.
Ieri
Massima -- | Minima -- °F
Precip. -- in
6:23 AM 7:26 PM
Luna crescente, 48% visible
Pressione 29.92 in
Visibilità 10.0 miglia
Nuvole Sereno
Indice di calore 84 °F
Punto di rugiada 73 °F
Umidità 79%
Piovosità 0.00 in
Spessore del manto nevoso Non disponibile.
Raggi UV 0 fuori da 12
Polline 5.00 fuori da 12
Qualità dell'aria Non disponibile.
Flu Activity Non disponibile.
METAR KLGA 020551Z 21006KT 10SM CLR 27/23 A2992 RMK AO2 SLP130 T02670228 10289 20267 $

More Conditions Fewer Conditions

Pressione 29.92 in
Visibilità 10.0 miglia
Nuvole Sereno
Indice di calore 84 °F
Punto di rugiada 73 °F
Umidità 79%
Piovosità 0.00 in
Spessore del manto nevoso Non disponibile.
Raggi UV 0 fuori da 12
Polline 5.00 fuori da 12
Qualità dell'aria Non disponibile.
Flu Activity Non disponibile.
METAR KLGA 020551Z 21006KT 10SM CLR 27/23 A2992 RMK AO2 SLP130 T02670228 10289 20267 $

More Conditions Fewer Conditions

10-Day Weather Forecast

Almanac

Astronomia

Sep. 02, 2014 Alba Tramonto
Ora attuale 06:23 EDT 19:26 EDT
Crepuscolo civile 05:55 EDT 19:54 EDT
Crepuscolo nautico 05:22 EDT 20:27 EDT
Crepuscolo astronomico 04:47 EDT 21:02 EDT
Luna 14:08 EDT Nessun tramonto lunare
Estensione della luce visibile 13h 58m
Lunghezza del giorno
13h 02m
Tomorrow will be 2m 37s shorter.
Luna crescente, 48% of the Moon is Illuminated
Oggi
Luna crescente
Set 2
Primo quarto
Set 8
Luna piena
Set 15
Ultimo quarto
Set 24
Nuovo

Gli estremi di oggi

State Highs State Lows

Community

WunderPhotos

Upload Photos

1,749,589 foto caricate!

WunderBlogs® & News

Nearby

Qualità dell'aria

  Qualità dell'aria Indice AQ Inquinante
Ieri Buono
OZONE
Ieri Buono
PM2.5
Martedì Moderato
OZONE
Martedì Moderato
PM2.5

Profondità neve

Stazione Profondità Altitudine
Non sono state evidenziate nuove nevicate

Attività sismica

Città  Distanza Mag. Data & Ora
Non sono state riportate attività sismiche nelle vicinanze.
Minimo Magnitudo Mostrato è 2.5.

Temperature delle acque costiere

Località Temperatura
Sandy Hook, NJ 77.0 °F
The Battery, NY 73.9 °F
Bergen Point West Reach, NJ 75.0 °F
Kings Point, NY 73.9 °F

Stazioni meteo nelle vicinanze